sensor_id;sensor_type;location;lat;lon;timestamp;pressure;altitude;pressure_sealevel;temperature;humidity
12785;BME280;6456;42.680;23.260;2023-12-28T00:00:51;95711.66;;;5.66;100.00
12785;BME280;6456;42.680;23.260;2023-12-28T00:03:19;95675.19;;;5.49;100.00
12785;BME280;6456;42.680;23.260;2023-12-28T00:05:47;95684.66;;;5.50;100.00
12785;BME280;6456;42.680;23.260;2023-12-28T00:08:14;95749.22;;;5.91;100.00
12785;BME280;6456;42.680;23.260;2023-12-28T00:10:41;95728.50;;;5.72;100.00
12785;BME280;6456;42.680;23.260;2023-12-28T00:13:08;95749.00;;;5.85;100.00
12785;BME280;6456;42.680;23.260;2023-12-28T00:15:36;95720.25;;;5.51;100.00
12785;BME280;6456;42.680;23.260;2023-12-28T00:18:03;95711.38;;;5.44;100.00
12785;BME280;6456;42.680;23.260;2023-12-28T00:20:32;95741.63;;;5.54;100.00
12785;BME280;6456;42.680;23.260;2023-12-28T00:23:00;95712.00;;;5.38;100.00
12785;BME280;6456;42.680;23.260;2023-12-28T00:25:27;95728.72;;;5.53;100.00
12785;BME280;6456;42.680;23.260;2023-12-28T00:27:54;95758.22;;;5.71;100.00
12785;BME280;6456;42.680;23.260;2023-12-28T00:30:22;95716.59;;;5.44;100.00
12785;BME280;6456;42.680;23.260;2023-12-28T00:32:49;95707.44;;;5.40;100.00
12785;BME280;6456;42.680;23.260;2023-12-28T00:35:16;95715.09;;;5.41;100.00
12785;BME280;6456;42.680;23.260;2023-12-28T00:37:45;95728.50;;;5.46;100.00
12785;BME280;6456;42.680;23.260;2023-12-28T00:40:12;95770.91;;;5.66;100.00
12785;BME280;6456;42.680;23.260;2023-12-28T00:42:39;95687.84;;;5.10;100.00
12785;BME280;6456;42.680;23.260;2023-12-28T00:45:08;95696.50;;;5.10;100.00
12785;BME280;6456;42.680;23.260;2023-12-28T00:47:36;95728.53;;;5.21;100.00
12785;BME280;6456;42.680;23.260;2023-12-28T00:50:04;95704.56;;;4.99;100.00
12785;BME280;6456;42.680;23.260;2023-12-28T00:52:31;95760.13;;;5.17;100.00
12785;BME280;6456;42.680;23.260;2023-12-28T00:55:00;95770.94;;;5.23;100.00
12785;BME280;6456;42.680;23.260;2023-12-28T00:57:27;95768.63;;;5.19;100.00
12785;BME280;6456;42.680;23.260;2023-12-28T00:59:55;95772.38;;;5.17;100.00
12785;BME280;6456;42.680;23.260;2023-12-28T01:02:22;95783.09;;;5.14;100.00
12785;BME280;6456;42.680;23.260;2023-12-28T01:04:49;95791.81;;;5.23;100.00
12785;BME280;6456;42.680;23.260;2023-12-28T01:07:17;95733.13;;;4.83;100.00
12785;BME280;6456;42.680;23.260;2023-12-28T01:09:46;95741.16;;;4.90;100.00
12785;BME280;6456;42.680;23.260;2023-12-28T01:12:16;95789.66;;;5.18;100.00
12785;BME280;6456;42.680;23.260;2023-12-28T01:14:43;95798.63;;;5.15;100.00
12785;BME280;6456;42.680;23.260;2023-12-28T01:17:10;95763.22;;;4.95;100.00
12785;BME280;6456;42.680;23.260;2023-12-28T01:19:37;95745.13;;;4.76;100.00
12785;BME280;6456;42.680;23.260;2023-12-28T01:22:05;95766.44;;;4.89;100.00
12785;BME280;6456;42.680;23.260;2023-12-28T01:24:32;95793.91;;;5.01;100.00
12785;BME280;6456;42.680;23.260;2023-12-28T01:26:59;95762.78;;;4.82;100.00
12785;BME280;6456;42.680;23.260;2023-12-28T01:29:28;95782.31;;;4.96;100.00
12785;BME280;6456;42.680;23.260;2023-12-28T01:31:55;95743.03;;;4.62;100.00
12785;BME280;6456;42.680;23.260;2023-12-28T01:34:22;95732.16;;;4.49;100.00
12785;BME280;6456;42.680;23.260;2023-12-28T01:36:49;95724.22;;;4.50;100.00
12785;BME280;6456;42.680;23.260;2023-12-28T01:39:16;95772.38;;;4.82;100.00
12785;BME280;6456;42.680;23.260;2023-12-28T01:41:44;95749.09;;;4.63;100.00
12785;BME280;6456;42.680;23.260;2023-12-28T01:44:12;95739.41;;;4.55;100.00
12785;BME280;6456;42.680;23.260;2023-12-28T01:46:40;95730.53;;;4.48;100.00
12785;BME280;6456;42.680;23.260;2023-12-28T01:49:08;95782.16;;;4.80;100.00
12785;BME280;6456;42.680;23.260;2023-12-28T01:51:35;95736.25;;;4.51;100.00
12785;BME280;6456;42.680;23.260;2023-12-28T01:54:03;95705.97;;;4.33;100.00
12785;BME280;6456;42.680;23.260;2023-12-28T01:56:30;95773.13;;;4.74;100.00
12785;BME280;6456;42.680;23.260;2023-12-28T01:58:58;95708.84;;;4.30;100.00
12785;BME280;6456;42.680;23.260;2023-12-28T02:01:26;95743.88;;;4.63;100.00
12785;BME280;6456;42.680;23.260;2023-12-28T02:03:55;95753.31;;;4.64;100.00
12785;BME280;6456;42.680;23.260;2023-12-28T02:06:23;95731.03;;;4.51;100.00
12785;BME280;6456;42.680;23.260;2023-12-28T02:08:50;95720.97;;;4.39;100.00
12785;BME280;6456;42.680;23.260;2023-12-28T02:11:18;95719.66;;;4.35;100.00
12785;BME280;6456;42.680;23.260;2023-12-28T02:13:46;95771.13;;;4.50;100.00
12785;BME280;6456;42.680;23.260;2023-12-28T02:16:22;95721.41;;;4.17;100.00
12785;BME280;6456;42.680;23.260;2023-12-28T02:18:56;95771.31;;;4.39;100.00
12785;BME280;6456;42.680;23.260;2023-12-28T02:21:24;95702.63;;;3.96;100.00
12785;BME280;6456;42.680;23.260;2023-12-28T02:23:51;95725.28;;;4.13;100.00
12785;BME280;6456;42.680;23.260;2023-12-28T02:26:20;95741.13;;;4.19;100.00
12785;BME280;6456;42.680;23.260;2023-12-28T02:28:48;95769.81;;;4.37;100.00
12785;BME280;6456;42.680;23.260;2023-12-28T02:31:21;95763.56;;;4.30;100.00
12785;BME280;6456;42.680;23.260;2023-12-28T02:33:50;95746.63;;;4.16;100.00
12785;BME280;6456;42.680;23.260;2023-12-28T02:36:23;95716.75;;;3.93;100.00
12785;BME280;6456;42.680;23.260;2023-12-28T02:38:51;95743.97;;;4.08;100.00
12785;BME280;6456;42.680;23.260;2023-12-28T02:41:22;95735.22;;;4.00;100.00
12785;BME280;6456;42.680;23.260;2023-12-28T02:43:51;95717.72;;;3.92;100.00
12785;BME280;6456;42.680;23.260;2023-12-28T02:46:18;95695.72;;;3.77;100.00
12785;BME280;6456;42.680;23.260;2023-12-28T02:48:45;95688.22;;;3.74;100.00
12785;BME280;6456;42.680;23.260;2023-12-28T02:51:13;95742.47;;;4.06;100.00
12785;BME280;6456;42.680;23.260;2023-12-28T02:53:42;95687.09;;;3.76;100.00
12785;BME280;6456;42.680;23.260;2023-12-28T02:56:13;95705.25;;;3.96;100.00
12785;BME280;6456;42.680;23.260;2023-12-28T02:58:42;95701.38;;;4.00;100.00
12785;BME280;6456;42.680;23.260;2023-12-28T03:01:10;95753.72;;;4.24;100.00
12785;BME280;6456;42.680;23.260;2023-12-28T03:03:37;95705.91;;;3.98;100.00
12785;BME280;6456;42.680;23.260;2023-12-28T03:06:04;95696.44;;;3.97;100.00
12785;BME280;6456;42.680;23.260;2023-12-28T03:08:32;95673.44;;;3.92;100.00
12785;BME280;6456;42.680;23.260;2023-12-28T03:10:59;95741.75;;;4.31;100.00
12785;BME280;6456;42.680;23.260;2023-12-28T03:13:27;95724.69;;;4.19;100.00
12785;BME280;6456;42.680;23.260;2023-12-28T03:15:58;95690.56;;;3.95;100.00
12785;BME280;6456;42.680;23.260;2023-12-28T03:18:25;95670.38;;;3.79;100.00
12785;BME280;6456;42.680;23.260;2023-12-28T03:20:55;95736.94;;;4.09;100.00
12785;BME280;6456;42.680;23.260;2023-12-28T03:23:25;95725.38;;;3.94;100.00
12785;BME280;6456;42.680;23.260;2023-12-28T03:25:53;95683.06;;;3.64;100.00
12785;BME280;6456;42.680;23.260;2023-12-28T03:28:22;95679.13;;;3.60;100.00
12785;BME280;6456;42.680;23.260;2023-12-28T03:30:50;95695.91;;;3.66;100.00
12785;BME280;6456;42.680;23.260;2023-12-28T03:33:19;95697.66;;;3.75;100.00
12785;BME280;6456;42.680;23.260;2023-12-28T03:35:46;95740.88;;;3.95;100.00
12785;BME280;6456;42.680;23.260;2023-12-28T03:38:13;95714.69;;;3.69;100.00
12785;BME280;6456;42.680;23.260;2023-12-28T03:40:40;95728.19;;;3.82;100.00
12785;BME280;6456;42.680;23.260;2023-12-28T03:43:07;95750.91;;;3.90;100.00
12785;BME280;6456;42.680;23.260;2023-12-28T03:45:34;95765.13;;;3.96;100.00
12785;BME280;6456;42.680;23.260;2023-12-28T03:48:02;95757.78;;;3.81;100.00
12785;BME280;6456;42.680;23.260;2023-12-28T03:50:31;95747.56;;;3.70;100.00
12785;BME280;6456;42.680;23.260;2023-12-28T03:53:01;95754.78;;;3.76;100.00
12785;BME280;6456;42.680;23.260;2023-12-28T03:55:28;95729.78;;;3.56;100.00
12785;BME280;6456;42.680;23.260;2023-12-28T03:57:55;95727.84;;;3.58;100.00
12785;BME280;6456;42.680;23.260;2023-12-28T04:00:23;95753.44;;;3.72;100.00
12785;BME280;6456;42.680;23.260;2023-12-28T04:02:51;95768.78;;;3.75;100.00
12785;BME280;6456;42.680;23.260;2023-12-28T04:05:19;95773.97;;;3.75;100.00
12785;BME280;6456;42.680;23.260;2023-12-28T04:07:49;95739.09;;;3.59;100.00
12785;BME280;6456;42.680;23.260;2023-12-28T04:10:28;95711.38;;;3.40;100.00
12785;BME280;6456;42.680;23.260;2023-12-28T04:12:55;95740.34;;;3.55;100.00
12785;BME280;6456;42.680;23.260;2023-12-28T04:15:26;95772.50;;;3.73;100.00
12785;BME280;6456;42.680;23.260;2023-12-28T04:17:54;95703.06;;;3.27;100.00
12785;BME280;6456;42.680;23.260;2023-12-28T04:20:23;95727.41;;;3.36;100.00
12785;BME280;6456;42.680;23.260;2023-12-28T04:22:55;95730.81;;;3.36;100.00
12785;BME280;6456;42.680;23.260;2023-12-28T04:25:25;95707.19;;;3.20;100.00
12785;BME280;6456;42.680;23.260;2023-12-28T04:27:52;95724.81;;;3.36;100.00
12785;BME280;6456;42.680;23.260;2023-12-28T04:30:20;95762.00;;;3.55;100.00
12785;BME280;6456;42.680;23.260;2023-12-28T04:32:47;95703.81;;;3.10;100.00
12785;BME280;6456;42.680;23.260;2023-12-28T04:35:14;95783.88;;;3.62;100.00
12785;BME280;6456;42.680;23.260;2023-12-28T04:37:42;95774.97;;;3.65;100.00
12785;BME280;6456;42.680;23.260;2023-12-28T04:40:11;95733.00;;;3.41;100.00
12785;BME280;6456;42.680;23.260;2023-12-28T04:42:39;95739.00;;;3.41;100.00
12785;BME280;6456;42.680;23.260;2023-12-28T04:45:07;95770.19;;;3.60;100.00
12785;BME280;6456;42.680;23.260;2023-12-28T04:47:35;95706.59;;;3.36;100.00
12785;BME280;6456;42.680;23.260;2023-12-28T04:50:03;95696.78;;;3.20;100.00
12785;BME280;6456;42.680;23.260;2023-12-28T04:52:31;95771.53;;;3.64;100.00
12785;BME280;6456;42.680;23.260;2023-12-28T04:54:58;95715.13;;;3.28;100.00
12785;BME280;6456;42.680;23.260;2023-12-28T04:57:27;95757.75;;;3.54;100.00
12785;BME280;6456;42.680;23.260;2023-12-28T04:59:59;95714.72;;;3.23;100.00
12785;BME280;6456;42.680;23.260;2023-12-28T05:02:29;95701.03;;;3.11;100.00
12785;BME280;6456;42.680;23.260;2023-12-28T05:05:01;95728.13;;;3.28;100.00
12785;BME280;6456;42.680;23.260;2023-12-28T05:07:28;95725.25;;;3.21;100.00
12785;BME280;6456;42.680;23.260;2023-12-28T05:09:56;95740.44;;;3.26;100.00
12785;BME280;6456;42.680;23.260;2023-12-28T05:12:23;95743.03;;;3.26;100.00
12785;BME280;6456;42.680;23.260;2023-12-28T05:14:52;95769.56;;;3.39;100.00
12785;BME280;6456;42.680;23.260;2023-12-28T05:17:19;95719.41;;;3.10;100.00
12785;BME280;6456;42.680;23.260;2023-12-28T05:19:46;95757.81;;;3.35;100.00
12785;BME280;6456;42.680;23.260;2023-12-28T05:22:13;95710.38;;;3.04;100.00
12785;BME280;6456;42.680;23.260;2023-12-28T05:24:41;95744.13;;;3.23;100.00
12785;BME280;6456;42.680;23.260;2023-12-28T05:27:08;95760.41;;;3.35;100.00
12785;BME280;6456;42.680;23.260;2023-12-28T05:29:35;95725.81;;;3.06;100.00
12785;BME280;6456;42.680;23.260;2023-12-28T05:32:04;95719.94;;;3.04;100.00
12785;BME280;6456;42.680;23.260;2023-12-28T05:34:32;95752.34;;;3.19;100.00
12785;BME280;6456;42.680;23.260;2023-12-28T05:36:59;95791.88;;;3.42;100.00
12785;BME280;6456;42.680;23.260;2023-12-28T05:39:26;95783.81;;;3.35;100.00
12785;BME280;6456;42.680;23.260;2023-12-28T05:41:53;95789.00;;;3.45;100.00
12785;BME280;6456;42.680;23.260;2023-12-28T05:44:23;95741.31;;;3.07;100.00
12785;BME280;6456;42.680;23.260;2023-12-28T05:46:50;95763.16;;;3.24;100.00
12785;BME280;6456;42.680;23.260;2023-12-28T05:49:19;95719.28;;;2.92;100.00
12785;BME280;6456;42.680;23.260;2023-12-28T05:51:46;95776.31;;;3.22;100.00
12785;BME280;6456;42.680;23.260;2023-12-28T05:54:13;95745.13;;;3.03;100.00
12785;BME280;6456;42.680;23.260;2023-12-28T05:56:40;95770.31;;;3.12;100.00
12785;BME280;6456;42.680;23.260;2023-12-28T05:59:07;95813.66;;;3.41;100.00
12785;BME280;6456;42.680;23.260;2023-12-28T06:01:42;95763.72;;;3.08;100.00
12785;BME280;6456;42.680;23.260;2023-12-28T06:04:09;95743.53;;;2.93;100.00
12785;BME280;6456;42.680;23.260;2023-12-28T06:06:38;95761.56;;;3.04;100.00
12785;BME280;6456;42.680;23.260;2023-12-28T06:09:05;95760.88;;;3.02;100.00
12785;BME280;6456;42.680;23.260;2023-12-28T06:11:33;95810.66;;;3.36;100.00
12785;BME280;6456;42.680;23.260;2023-12-28T06:14:00;95783.16;;;3.23;100.00
12785;BME280;6456;42.680;23.260;2023-12-28T06:16:27;95761.97;;;3.09;100.00
12785;BME280;6456;42.680;23.260;2023-12-28T06:18:58;95727.38;;;2.89;100.00
12785;BME280;6456;42.680;23.260;2023-12-28T06:21:25;95788.66;;;3.20;100.00
12785;BME280;6456;42.680;23.260;2023-12-28T06:23:53;95796.56;;;3.38;100.00
12785;BME280;6456;42.680;23.260;2023-12-28T06:26:20;95808.31;;;3.42;100.00
12785;BME280;6456;42.680;23.260;2023-12-28T06:28:47;95787.13;;;3.28;100.00
12785;BME280;6456;42.680;23.260;2023-12-28T06:31:14;95780.66;;;3.32;100.00
12785;BME280;6456;42.680;23.260;2023-12-28T06:33:41;95813.66;;;3.50;100.00
12785;BME280;6456;42.680;23.260;2023-12-28T06:36:11;95804.19;;;3.49;100.00
12785;BME280;6456;42.680;23.260;2023-12-28T06:38:38;95822.38;;;3.59;100.00
12785;BME280;6456;42.680;23.260;2023-12-28T06:41:15;95816.06;;;3.61;100.00
12785;BME280;6456;42.680;23.260;2023-12-28T06:43:42;95821.00;;;3.64;100.00
12785;BME280;6456;42.680;23.260;2023-12-28T06:46:09;95821.16;;;3.63;100.00
12785;BME280;6456;42.680;23.260;2023-12-28T06:48:36;95823.59;;;3.64;100.00
12785;BME280;6456;42.680;23.260;2023-12-28T06:51:05;95822.66;;;3.65;100.00
12785;BME280;6456;42.680;23.260;2023-12-28T06:53:32;95830.16;;;3.68;100.00
12785;BME280;6456;42.680;23.260;2023-12-28T06:55:59;95815.41;;;3.59;100.00
12785;BME280;6456;42.680;23.260;2023-12-28T06:58:28;95820.03;;;3.56;100.00
12785;BME280;6456;42.680;23.260;2023-12-28T07:00:55;95806.25;;;3.55;100.00
12785;BME280;6456;42.680;23.260;2023-12-28T07:03:22;95820.59;;;3.59;100.00
12785;BME280;6456;42.680;23.260;2023-12-28T07:05:50;95771.38;;;3.29;100.00
12785;BME280;6456;42.680;23.260;2023-12-28T07:08:17;95833.34;;;3.62;100.00
12785;BME280;6456;42.680;23.260;2023-12-28T07:10:44;95812.56;;;3.43;100.00
12785;BME280;6456;42.680;23.260;2023-12-28T07:13:11;95827.84;;;3.56;100.00
12785;BME280;6456;42.680;23.260;2023-12-28T07:15:40;95824.69;;;3.62;100.00
12785;BME280;6456;42.680;23.260;2023-12-28T07:18:07;95836.88;;;3.71;100.00
12785;BME280;6456;42.680;23.260;2023-12-28T07:20:34;95831.25;;;3.75;100.00
12785;BME280;6456;42.680;23.260;2023-12-28T07:23:01;95823.84;;;3.80;100.00
12785;BME280;6456;42.680;23.260;2023-12-28T07:25:28;95823.84;;;3.80;100.00
12785;BME280;6456;42.680;23.260;2023-12-28T07:27:55;95826.53;;;3.98;100.00
12785;BME280;6456;42.680;23.260;2023-12-28T07:30:22;95825.53;;;3.99;100.00
12785;BME280;6456;42.680;23.260;2023-12-28T07:32:51;95829.22;;;4.06;100.00
12785;BME280;6456;42.680;23.260;2023-12-28T07:35:18;95836.69;;;4.19;100.00
12785;BME280;6456;42.680;23.260;2023-12-28T07:37:45;95826.47;;;4.08;100.00
12785;BME280;6456;42.680;23.260;2023-12-28T07:40:12;95798.81;;;3.97;100.00
12785;BME280;6456;42.680;23.260;2023-12-28T07:42:39;95840.06;;;4.29;100.00
12785;BME280;6456;42.680;23.260;2023-12-28T07:45:07;95810.81;;;4.17;100.00
12785;BME280;6456;42.680;23.260;2023-12-28T07:47:34;95835.34;;;4.42;100.00
12785;BME280;6456;42.680;23.260;2023-12-28T07:50:03;95792.41;;;4.19;100.00
12785;BME280;6456;42.680;23.260;2023-12-28T07:52:30;95824.41;;;4.38;100.00
12785;BME280;6456;42.680;23.260;2023-12-28T07:54:57;95836.41;;;4.49;100.00
12785;BME280;6456;42.680;23.260;2023-12-28T07:57:24;95832.31;;;4.46;100.00
12785;BME280;6456;42.680;23.260;2023-12-28T07:59:51;95859.69;;;4.60;100.00
12785;BME280;6456;42.680;23.260;2023-12-28T08:02:18;95817.28;;;4.40;100.00
12785;BME280;6456;42.680;23.260;2023-12-28T08:04:45;95845.91;;;4.68;100.00
12785;BME280;6456;42.680;23.260;2023-12-28T08:07:14;95838.31;;;4.74;100.00
12785;BME280;6456;42.680;23.260;2023-12-28T08:09:41;95795.63;;;4.58;100.00
12785;BME280;6456;42.680;23.260;2023-12-28T08:12:08;95754.84;;;4.39;100.00
12785;BME280;6456;42.680;23.260;2023-12-28T08:14:35;95832.81;;;4.95;100.00
12785;BME280;6456;42.680;23.260;2023-12-28T08:17:02;95769.78;;;4.64;100.00
12785;BME280;6456;42.680;23.260;2023-12-28T08:19:29;95836.41;;;5.11;100.00
12785;BME280;6456;42.680;23.260;2023-12-28T08:21:56;95826.50;;;5.15;100.00
12785;BME280;6456;42.680;23.260;2023-12-28T08:24:24;95825.75;;;5.23;100.00
12785;BME280;6456;42.680;23.260;2023-12-28T08:26:51;95777.97;;;5.04;100.00
12785;BME280;6456;42.680;23.260;2023-12-28T08:29:18;95822.28;;;5.40;100.00
12785;BME280;6456;42.680;23.260;2023-12-28T08:31:45;95816.78;;;5.43;100.00
12785;BME280;6456;42.680;23.260;2023-12-28T08:34:12;95805.31;;;5.36;100.00
12785;BME280;6456;42.680;23.260;2023-12-28T08:36:40;95832.03;;;5.55;100.00
12785;BME280;6456;42.680;23.260;2023-12-28T08:39:08;95820.84;;;5.63;100.00
12785;BME280;6456;42.680;23.260;2023-12-28T08:41:36;95817.41;;;5.62;100.00
12785;BME280;6456;42.680;23.260;2023-12-28T08:44:03;95820.84;;;5.63;100.00
12785;BME280;6456;42.680;23.260;2023-12-28T08:46:30;95794.66;;;5.55;100.00
12785;BME280;6456;42.680;23.260;2023-12-28T08:48:58;95827.97;;;5.78;100.00
12785;BME280;6456;42.680;23.260;2023-12-28T08:51:27;95787.91;;;5.70;100.00
12785;BME280;6456;42.680;23.260;2023-12-28T08:53:56;95803.59;;;5.96;100.00
12785;BME280;6456;42.680;23.260;2023-12-28T08:56:23;95810.13;;;6.00;100.00
12785;BME280;6456;42.680;23.260;2023-12-28T08:58:51;95797.44;;;6.05;100.00
12785;BME280;6456;42.680;23.260;2023-12-28T09:01:20;95799.44;;;6.11;100.00
12785;BME280;6456;42.680;23.260;2023-12-28T09:03:48;95795.03;;;6.19;100.00
12785;BME280;6456;42.680;23.260;2023-12-28T09:06:19;95791.78;;;6.17;100.00
12785;BME280;6456;42.680;23.260;2023-12-28T09:08:50;95800.47;;;6.26;100.00
12785;BME280;6456;42.680;23.260;2023-12-28T09:11:22;95770.03;;;6.17;100.00
12785;BME280;6456;42.680;23.260;2023-12-28T09:13:53;95773.69;;;6.32;100.00
12785;BME280;6456;42.680;23.260;2023-12-28T09:16:20;95781.44;;;6.50;100.00
12785;BME280;6456;42.680;23.260;2023-12-28T09:18:47;95787.34;;;6.60;100.00
12785;BME280;6456;42.680;23.260;2023-12-28T09:21:14;95780.47;;;6.67;100.00
12785;BME280;6456;42.680;23.260;2023-12-28T09:23:41;95779.84;;;6.73;100.00
12785;BME280;6456;42.680;23.260;2023-12-28T09:26:08;95727.81;;;6.45;100.00
12785;BME280;6456;42.680;23.260;2023-12-28T09:28:35;95765.78;;;6.82;100.00
12785;BME280;6456;42.680;23.260;2023-12-28T09:31:04;95713.47;;;6.58;100.00
12785;BME280;6456;42.680;23.260;2023-12-28T09:33:31;95728.19;;;6.75;100.00
12785;BME280;6456;42.680;23.260;2023-12-28T09:36:00;95733.75;;;6.88;100.00
12785;BME280;6456;42.680;23.260;2023-12-28T09:38:29;95748.31;;;7.06;100.00
12785;BME280;6456;42.680;23.260;2023-12-28T09:40:58;95746.53;;;7.07;100.00
12785;BME280;6456;42.680;23.260;2023-12-28T09:43:35;95743.75;;;7.08;100.00
12785;BME280;6456;42.680;23.260;2023-12-28T09:46:07;95736.06;;;7.15;100.00
12785;BME280;6456;42.680;23.260;2023-12-28T09:48:37;95705.78;;;7.04;100.00
12785;BME280;6456;42.680;23.260;2023-12-28T09:51:05;95727.53;;;7.29;100.00
12785;BME280;6456;42.680;23.260;2023-12-28T09:53:32;95728.84;;;7.41;100.00
12785;BME280;6456;42.680;23.260;2023-12-28T09:55:59;95724.56;;;7.48;100.00
12785;BME280;6456;42.680;23.260;2023-12-28T09:58:28;95714.09;;;7.56;100.00
12785;BME280;6456;42.680;23.260;2023-12-28T10:00:59;95684.97;;;7.43;100.00
12785;BME280;6456;42.680;23.260;2023-12-28T10:03:28;95703.56;;;7.64;100.00
12785;BME280;6456;42.680;23.260;2023-12-28T10:05:55;95697.69;;;7.62;100.00
12785;BME280;6456;42.680;23.260;2023-12-28T10:08:22;95697.16;;;7.75;100.00
12785;BME280;6456;42.680;23.260;2023-12-28T10:10:50;95695.81;;;7.79;100.00
12785;BME280;6456;42.680;23.260;2023-12-28T10:13:19;95694.97;;;7.87;100.00
12785;BME280;6456;42.680;23.260;2023-12-28T10:15:47;95690.03;;;7.92;100.00
12785;BME280;6456;42.680;23.260;2023-12-28T10:18:17;95688.72;;;7.96;100.00
12785;BME280;6456;42.680;23.260;2023-12-28T10:20:50;95675.94;;;8.01;100.00
12785;BME280;6456;42.680;23.260;2023-12-28T10:23:17;95682.44;;;8.05;100.00
12785;BME280;6456;42.680;23.260;2023-12-28T10:25:44;95664.75;;;8.07;100.00
12785;BME280;6456;42.680;23.260;2023-12-28T10:28:12;95659.88;;;8.04;100.00
12785;BME280;6456;42.680;23.260;2023-12-28T10:30:39;95644.44;;;8.09;100.00
12785;BME280;6456;42.680;23.260;2023-12-28T10:33:06;95647.00;;;8.17;99.80
12785;BME280;6456;42.680;23.260;2023-12-28T10:35:35;95645.47;;;8.30;99.40
12785;BME280;6456;42.680;23.260;2023-12-28T10:38:04;95635.50;;;8.26;98.54
12785;BME280;6456;42.680;23.260;2023-12-28T10:40:32;95637.44;;;8.32;98.16
12785;BME280;6456;42.680;23.260;2023-12-28T10:43:06;95634.31;;;8.36;97.58
12785;BME280;6456;42.680;23.260;2023-12-28T10:45:34;95623.94;;;8.43;97.24
12785;BME280;6456;42.680;23.260;2023-12-28T10:48:05;95620.31;;;8.44;97.02
12785;BME280;6456;42.680;23.260;2023-12-28T10:50:38;95609.16;;;8.42;97.24
12785;BME280;6456;42.680;23.260;2023-12-28T10:53:18;95629.06;;;8.59;96.63
12785;BME280;6456;42.680;23.260;2023-12-28T10:55:53;95626.25;;;8.61;95.60
12785;BME280;6456;42.680;23.260;2023-12-28T10:58:34;95620.81;;;8.62;94.56
12785;BME280;6456;42.680;23.260;2023-12-28T11:01:07;95607.34;;;8.65;93.97
12785;BME280;6456;42.680;23.260;2023-12-28T11:03:37;95606.88;;;8.62;93.93
12785;BME280;6456;42.680;23.260;2023-12-28T11:06:07;95598.94;;;8.70;93.81
12785;BME280;6456;42.680;23.260;2023-12-28T11:08:37;95601.69;;;8.76;93.47
12785;BME280;6456;42.680;23.260;2023-12-28T11:11:06;95590.31;;;8.84;93.80
12785;BME280;6456;42.680;23.260;2023-12-28T11:13:35;95590.06;;;8.93;93.65
12785;BME280;6456;42.680;23.260;2023-12-28T11:16:03;95588.06;;;8.95;92.28
12785;BME280;6456;42.680;23.260;2023-12-28T11:18:30;95588.16;;;9.02;92.02
12785;BME280;6456;42.680;23.260;2023-12-28T11:20:57;95582.00;;;9.10;91.47
12785;BME280;6456;42.680;23.260;2023-12-28T11:23:24;95583.09;;;9.15;90.63
12785;BME280;6456;42.680;23.260;2023-12-28T11:25:53;95565.19;;;9.19;90.28
12785;BME280;6456;42.680;23.260;2023-12-28T11:28:23;95561.66;;;9.26;89.86
12785;BME280;6456;42.680;23.260;2023-12-28T11:30:51;95567.34;;;9.30;90.11
12785;BME280;6456;42.680;23.260;2023-12-28T11:33:18;95552.25;;;9.32;89.55
12785;BME280;6456;42.680;23.260;2023-12-28T11:35:47;95554.22;;;9.30;89.72
12785;BME280;6456;42.680;23.260;2023-12-28T11:38:15;95553.13;;;9.39;88.58
12785;BME280;6456;42.680;23.260;2023-12-28T11:40:45;95544.25;;;9.40;89.15
12785;BME280;6456;42.680;23.260;2023-12-28T11:43:19;95522.59;;;9.38;89.13
12785;BME280;6456;42.680;23.260;2023-12-28T11:45:48;95537.91;;;9.49;89.30
12785;BME280;6456;42.680;23.260;2023-12-28T11:48:22;95535.53;;;9.54;89.17
12785;BME280;6456;42.680;23.260;2023-12-28T11:50:50;95528.81;;;9.66;88.16
12785;BME280;6456;42.680;23.260;2023-12-28T11:53:17;95527.28;;;9.72;87.56
12785;BME280;6456;42.680;23.260;2023-12-28T11:55:45;95529.34;;;9.76;87.16
12785;BME280;6456;42.680;23.260;2023-12-28T11:58:12;95528.16;;;9.79;86.59
12785;BME280;6456;42.680;23.260;2023-12-28T12:00:41;95520.44;;;9.77;86.59
12785;BME280;6456;42.680;23.260;2023-12-28T12:03:10;95527.59;;;9.83;86.04
12785;BME280;6456;42.680;23.260;2023-12-28T12:05:37;95524.97;;;9.83;86.10
12785;BME280;6456;42.680;23.260;2023-12-28T12:08:09;95515.19;;;9.77;86.25
12785;BME280;6456;42.680;23.260;2023-12-28T12:10:39;95511.19;;;9.81;85.36
12785;BME280;6456;42.680;23.260;2023-12-28T12:13:06;95514.41;;;9.98;85.20
12785;BME280;6456;42.680;23.260;2023-12-28T12:15:34;95508.56;;;10.02;85.01
12785;BME280;6456;42.680;23.260;2023-12-28T12:18:03;95499.63;;;9.97;85.33
12785;BME280;6456;42.680;23.260;2023-12-28T12:20:32;95492.16;;;10.00;84.32
12785;BME280;6456;42.680;23.260;2023-12-28T12:22:59;95498.59;;;10.12;83.41
12785;BME280;6456;42.680;23.260;2023-12-28T12:25:26;95496.81;;;9.98;83.01
12785;BME280;6456;42.680;23.260;2023-12-28T12:27:53;95504.84;;;10.11;82.94
12785;BME280;6456;42.680;23.260;2023-12-28T12:30:20;95506.56;;;10.19;82.30
12785;BME280;6456;42.680;23.260;2023-12-28T12:32:48;95511.63;;;10.20;80.87
12785;BME280;6456;42.680;23.260;2023-12-28T12:35:17;95496.19;;;10.17;80.57
12785;BME280;6456;42.680;23.260;2023-12-28T12:37:47;95503.34;;;10.23;80.79
12785;BME280;6456;42.680;23.260;2023-12-28T12:40:15;95515.63;;;10.38;81.01
12785;BME280;6456;42.680;23.260;2023-12-28T12:42:43;95504.84;;;10.32;80.80
12785;BME280;6456;42.680;23.260;2023-12-28T12:45:10;95509.00;;;10.42;80.81
12785;BME280;6456;42.680;23.260;2023-12-28T12:47:37;95519.19;;;10.51;80.58
12785;BME280;6456;42.680;23.260;2023-12-28T12:50:06;95504.13;;;10.45;80.85
12785;BME280;6456;42.680;23.260;2023-12-28T12:52:34;95503.63;;;10.56;79.84
12785;BME280;6456;42.680;23.260;2023-12-28T12:55:01;95506.69;;;10.60;79.14
12785;BME280;6456;42.680;23.260;2023-12-28T12:57:29;95504.69;;;10.62;78.68
12785;BME280;6456;42.680;23.260;2023-12-28T12:59:56;95487.63;;;10.58;78.93
12785;BME280;6456;42.680;23.260;2023-12-28T13:02:24;95453.53;;;10.43;78.38
12785;BME280;6456;42.680;23.260;2023-12-28T13:04:53;95462.28;;;10.50;78.20
12785;BME280;6456;42.680;23.260;2023-12-28T13:07:20;95479.63;;;10.72;78.09